createdAt,value
2018-08-27T00:00:52.536Z,1.40
2018-08-27T00:03:21.196Z,1.40
2018-08-27T00:05:49.760Z,1.40
2018-08-27T00:08:18.299Z,1.40
2018-08-27T00:10:46.961Z,1.70
2018-08-27T00:13:15.565Z,2.07
2018-08-27T00:15:44.131Z,1.90
2018-08-27T00:18:12.720Z,1.87
2018-08-27T00:20:41.271Z,1.63
2018-08-27T00:23:09.831Z,1.60
2018-08-27T00:25:38.395Z,1.80
2018-08-27T00:28:06.956Z,1.70
2018-08-27T00:30:35.491Z,1.60
2018-08-27T00:33:04.176Z,1.90
2018-08-27T00:35:32.733Z,1.90
2018-08-27T00:38:01.311Z,1.70
2018-08-27T00:40:29.919Z,3.30
2018-08-27T00:42:58.471Z,1.47
2018-08-27T00:45:27.027Z,1.70
2018-08-27T00:47:55.596Z,1.60
2018-08-27T00:50:24.157Z,1.90
2018-08-27T00:52:52.711Z,2.10
2018-08-27T00:55:21.299Z,1.83
2018-08-27T00:57:50.131Z,1.77
2018-08-27T01:00:18.760Z,1.90
2018-08-27T01:02:47.429Z,1.73
2018-08-27T01:05:15.984Z,1.80
2018-08-27T01:07:44.535Z,1.77
2018-08-27T01:10:13.120Z,2.60
2018-08-27T01:12:41.740Z,2.00
2018-08-27T01:15:10.312Z,2.07
2018-08-27T01:17:39.223Z,1.57
2018-08-27T01:20:07.820Z,1.60
2018-08-27T01:22:36.456Z,1.50
2018-08-27T01:25:05.064Z,1.50
2018-08-27T01:27:33.607Z,1.60
2018-08-27T01:30:02.156Z,1.87
2018-08-27T01:32:31.144Z,1.60
2018-08-27T01:35:00.248Z,1.47
2018-08-27T01:37:28.799Z,1.90
2018-08-27T01:39:57.560Z,1.70
2018-08-27T01:42:27.088Z,1.97
2018-08-27T01:44:56.423Z,1.60
2018-08-27T01:47:25.094Z,1.50
2018-08-27T01:49:53.687Z,1.70
2018-08-27T01:52:22.232Z,1.73
2018-08-27T01:54:50.811Z,1.53
2018-08-27T01:57:19.369Z,1.57
2018-08-27T01:59:47.947Z,1.63
2018-08-27T02:02:16.657Z,1.70
2018-08-27T02:04:45.208Z,1.77
2018-08-27T02:07:13.755Z,1.70
2018-08-27T02:09:42.584Z,1.50
2018-08-27T02:12:11.160Z,1.67
2018-08-27T02:14:39.707Z,1.37
2018-08-27T02:17:08.439Z,1.70
2018-08-27T02:19:36.996Z,2.37
2018-08-27T02:22:05.928Z,1.60
2018-08-27T02:24:34.517Z,1.93
2018-08-27T02:27:03.076Z,1.23
2018-08-27T02:29:31.653Z,1.30
2018-08-27T02:32:00.230Z,1.90
2018-08-27T02:34:28.777Z,1.60
2018-08-27T02:36:57.331Z,1.47
2018-08-27T02:39:25.995Z,1.97
2018-08-27T02:41:54.531Z,1.83
2018-08-27T02:44:23.083Z,1.70
2018-08-27T02:46:51.943Z,1.70
2018-08-27T02:49:20.533Z,1.83
2018-08-27T02:51:49.071Z,1.23
2018-08-27T02:54:17.736Z,1.40
2018-08-27T02:56:46.291Z,1.67
2018-08-27T02:59:14.895Z,1.20
2018-08-27T03:01:43.696Z,1.57
2018-08-27T03:04:12.252Z,1.43
2018-08-27T03:06:40.816Z,1.40
2018-08-27T03:09:10.355Z,1.87
2018-08-27T03:11:38.900Z,1.60
2018-08-27T03:14:07.555Z,2.00
2018-08-27T03:16:36.285Z,1.60
2018-08-27T03:19:04.880Z,1.53
2018-08-27T03:21:33.432Z,2.40
2018-08-27T03:24:02.099Z,1.90
2018-08-27T03:26:30.651Z,1.47
2018-08-27T03:28:59.199Z,1.40
2018-08-27T03:31:27.876Z,1.20
2018-08-27T03:33:56.419Z,1.80
2018-08-27T03:36:24.977Z,1.40
2018-08-27T03:38:53.596Z,1.43
2018-08-27T03:41:22.163Z,1.70
2018-08-27T03:43:50.720Z,1.53
2018-08-27T03:46:19.379Z,1.80
2018-08-27T03:48:47.927Z,1.40
2018-08-27T03:51:16.595Z,1.70
2018-08-27T03:53:45.255Z,2.20
2018-08-27T03:56:13.890Z,1.63
2018-08-27T03:58:42.467Z,1.57
2018-08-27T04:01:11.096Z,1.53
2018-08-27T04:03:39.644Z,1.70
2018-08-27T04:06:08.189Z,1.80
2018-08-27T04:08:37.072Z,1.67
2018-08-27T04:11:05.895Z,1.70
2018-08-27T04:13:34.451Z,1.90
2018-08-27T04:16:03.335Z,1.73
2018-08-27T04:18:31.880Z,1.33
2018-08-27T04:21:00.428Z,1.50
2018-08-27T04:23:29.399Z,1.53
2018-08-27T04:25:57.947Z,1.17
2018-08-27T04:28:26.504Z,1.50
2018-08-27T04:30:55.079Z,1.40
2018-08-27T04:33:23.627Z,1.63
2018-08-27T04:35:52.165Z,1.77
2018-08-27T04:38:20.839Z,2.20
2018-08-27T04:40:49.382Z,1.30
2018-08-27T04:43:18.020Z,2.00
2018-08-27T04:45:46.688Z,1.43
2018-08-27T04:48:15.243Z,1.40
2018-08-27T04:50:43.830Z,2.10
2018-08-27T04:53:12.712Z,1.73
2018-08-27T04:55:41.271Z,1.37
2018-08-27T04:58:09.823Z,1.60
2018-08-27T05:00:42.190Z,1.43
2018-08-27T05:03:11.559Z,1.30
2018-08-27T05:05:40.106Z,1.70
2018-08-27T05:08:08.769Z,1.37
2018-08-27T05:10:37.346Z,1.33
2018-08-27T05:13:05.947Z,1.60
2018-08-27T05:15:34.783Z,1.57
2018-08-27T05:18:03.331Z,1.30
2018-08-27T05:20:31.880Z,1.67
2018-08-27T05:23:00.444Z,1.50
2018-08-27T05:25:28.993Z,1.70
2018-08-27T05:27:57.547Z,1.83
2018-08-27T05:30:26.123Z,1.33
2018-08-27T05:32:54.680Z,1.90
2018-08-27T05:35:23.222Z,1.80
2018-08-27T05:37:51.909Z,1.53
2018-08-27T05:40:20.466Z,1.70
2018-08-27T05:42:49.059Z,1.37
2018-08-27T05:45:17.675Z,1.30
2018-08-27T05:47:46.237Z,1.70
2018-08-27T05:50:14.812Z,1.60
2018-08-27T05:52:43.412Z,1.30
2018-08-27T05:55:11.933Z,1.57
2018-08-27T05:57:40.506Z,1.40
2018-08-27T06:00:09.492Z,2.47
2018-08-27T06:02:38.040Z,2.00
2018-08-27T06:05:06.608Z,1.80
2018-08-27T06:07:35.208Z,1.80
2018-08-27T06:10:03.858Z,1.87
2018-08-27T06:12:32.407Z,1.57
2018-08-27T06:15:01.012Z,2.33
2018-08-27T06:17:29.576Z,2.50
2018-08-27T06:19:58.123Z,2.27
2018-08-27T06:22:26.808Z,1.70
2018-08-27T06:24:55.380Z,2.03
2018-08-27T06:27:23.949Z,1.63
2018-08-27T06:29:52.543Z,1.77
2018-08-27T06:32:21.109Z,1.57
2018-08-27T06:34:49.675Z,1.40
2018-08-27T06:37:18.567Z,3.10
2018-08-27T06:39:47.123Z,2.30
2018-08-27T06:42:15.691Z,2.10
2018-08-27T06:44:44.384Z,2.60
2018-08-27T06:47:12.956Z,2.27
2018-08-27T06:49:41.512Z,2.40
2018-08-27T06:52:10.199Z,1.63
2018-08-27T06:54:38.735Z,1.80
2018-08-27T06:57:07.276Z,1.83
2018-08-27T06:59:35.898Z,1.97
2018-08-27T07:02:04.472Z,2.00
2018-08-27T07:04:33.013Z,1.40
2018-08-27T07:07:01.584Z,1.77
2018-08-27T07:09:30.144Z,2.03
2018-08-27T07:11:58.696Z,1.80
2018-08-27T07:14:27.295Z,1.73
2018-08-27T07:16:55.852Z,2.10
2018-08-27T07:19:24.422Z,1.77
2018-08-27T07:21:52.987Z,1.43
2018-08-27T07:24:21.616Z,2.10
2018-08-27T07:26:50.237Z,1.93
2018-08-27T07:29:18.824Z,1.70
2018-08-27T07:31:47.383Z,1.90
2018-08-27T07:34:15.932Z,1.67
2018-08-27T07:36:44.875Z,1.40
2018-08-27T07:39:13.363Z,2.17
2018-08-27T07:41:42.182Z,1.73
2018-08-27T07:44:10.859Z,1.67
2018-08-27T07:46:39.416Z,1.93
2018-08-27T07:49:07.972Z,1.40
2018-08-27T07:51:36.567Z,1.47
2018-08-27T07:54:05.140Z,1.60
2018-08-27T07:56:33.729Z,1.57
2018-08-27T07:59:02.416Z,1.50
2018-08-27T08:01:30.983Z,1.50
2018-08-27T08:03:59.550Z,1.57
2018-08-27T08:06:28.339Z,1.90
2018-08-27T08:08:56.960Z,1.47
2018-08-27T08:11:25.529Z,1.67
2018-08-27T08:13:54.107Z,1.57
2018-08-27T08:16:22.678Z,1.70
2018-08-27T08:18:51.248Z,1.70
2018-08-27T08:21:20.135Z,1.10
2018-08-27T08:23:48.723Z,1.33
2018-08-27T08:26:17.275Z,2.40
2018-08-27T08:28:46.220Z,2.40
2018-08-27T08:31:14.812Z,1.97
2018-08-27T08:33:43.418Z,1.33
2018-08-27T08:36:11.975Z,1.73
2018-08-27T08:38:40.532Z,2.30
2018-08-27T08:41:09.390Z,1.83
2018-08-27T08:43:38.203Z,1.60
2018-08-27T08:46:06.759Z,1.83
2018-08-27T08:48:35.324Z,2.00
2018-08-27T08:51:04.267Z,1.70
2018-08-27T08:53:32.868Z,1.20
2018-08-27T08:56:01.578Z,1.80
2018-08-27T08:58:30.447Z,1.30
2018-08-27T09:00:59.045Z,2.10
2018-08-27T09:03:27.652Z,1.60
2018-08-27T09:05:56.256Z,1.70
2018-08-27T09:08:24.850Z,2.10
2018-08-27T09:10:53.435Z,1.93
2018-08-27T09:13:22.361Z,2.13
2018-08-27T09:15:50.916Z,1.60
2018-08-27T09:18:19.471Z,1.87
2018-08-27T09:20:48.063Z,2.17
2018-08-27T09:23:16.628Z,1.53
2018-08-27T09:25:45.181Z,1.90
2018-08-27T09:28:13.839Z,2.00
2018-08-27T09:30:42.384Z,1.63
2018-08-27T09:33:11.093Z,2.90
2018-08-27T09:35:39.621Z,2.27
2018-08-27T09:38:08.248Z,1.90
2018-08-27T09:40:36.812Z,2.50
2018-08-27T09:43:05.512Z,2.07
2018-08-27T09:45:34.118Z,1.87
2018-08-27T09:48:03.050Z,1.97
2018-08-27T09:50:32.432Z,1.77
2018-08-27T09:53:01.385Z,2.13
2018-08-27T09:55:29.876Z,2.40
2018-08-27T09:57:58.491Z,2.17
2018-08-27T10:00:32.383Z,2.20
2018-08-27T10:03:01.183Z,1.97
2018-08-27T10:05:29.748Z,2.23
2018-08-27T10:07:58.307Z,1.97
2018-08-27T10:10:27.156Z,2.23
2018-08-27T10:12:55.714Z,2.10
2018-08-27T10:15:24.274Z,1.80
2018-08-27T10:17:52.859Z,1.67
2018-08-27T10:20:21.416Z,1.63
2018-08-27T10:22:49.976Z,1.93
2018-08-27T10:25:18.963Z,1.83
2018-08-27T10:27:47.521Z,2.20
2018-08-27T10:30:16.092Z,1.87
2018-08-27T10:32:44.761Z,1.90
2018-08-27T10:35:13.331Z,1.80
2018-08-27T10:37:41.890Z,1.97
2018-08-27T10:40:10.487Z,1.63
2018-08-27T10:42:39.051Z,1.67
2018-08-27T10:45:07.684Z,1.87
2018-08-27T10:47:36.535Z,1.60
2018-08-27T10:50:05.133Z,1.87
2018-08-27T10:52:33.695Z,2.13
2018-08-27T10:55:02.292Z,1.70
2018-08-27T10:57:30.868Z,1.80
2018-08-27T10:59:59.483Z,1.70
2018-08-27T11:02:28.164Z,1.80
2018-08-27T11:04:56.707Z,1.87
2018-08-27T11:07:25.891Z,2.07
2018-08-27T11:09:56.343Z,2.50
2018-08-27T11:12:24.887Z,1.70
2018-08-27T11:14:53.444Z,2.23
2018-08-27T11:17:22.723Z,1.70
2018-08-27T11:19:51.453Z,2.23
2018-08-27T11:22:19.976Z,2.43
2018-08-27T11:24:48.791Z,1.60
2018-08-27T11:27:17.353Z,1.80
2018-08-27T11:29:45.892Z,1.87
2018-08-27T11:32:14.569Z,2.87
2018-08-27T11:34:43.123Z,2.10
2018-08-27T11:37:11.663Z,1.73
2018-08-27T11:39:40.336Z,2.37
2018-08-27T11:42:08.880Z,2.20
2018-08-27T11:44:37.420Z,1.80
2018-08-27T11:47:06.336Z,1.70
2018-08-27T11:49:34.899Z,2.00
2018-08-27T11:52:03.463Z,2.00
2018-08-27T11:54:32.407Z,2.03
2018-08-27T11:57:00.955Z,1.43
2018-08-27T11:59:29.528Z,2.13
2018-08-27T12:01:58.156Z,2.07
2018-08-27T12:04:26.771Z,2.03
2018-08-27T12:06:55.364Z,1.70
2018-08-27T12:09:24.316Z,1.80
2018-08-27T12:11:52.883Z,2.33
2018-08-27T12:14:21.447Z,1.70
2018-08-27T12:16:50.203Z,1.40
2018-08-27T12:19:18.715Z,1.93
2018-08-27T12:21:47.267Z,2.53
2018-08-27T12:24:15.860Z,1.70
2018-08-27T12:26:44.444Z,1.80
2018-08-27T12:29:13.011Z,1.83
2018-08-27T12:31:41.585Z,1.37
2018-08-27T12:34:10.147Z,1.60
2018-08-27T12:36:38.727Z,1.30
2018-08-27T12:39:09.180Z,1.80
2018-08-27T12:41:37.808Z,1.40
2018-08-27T12:44:06.389Z,2.03
2018-08-27T12:46:35.111Z,1.50
2018-08-27T12:49:03.655Z,1.80
2018-08-27T12:51:32.219Z,1.87
2018-08-27T12:54:00.943Z,1.70
2018-08-27T12:56:29.499Z,2.13
2018-08-27T12:58:58.137Z,1.50
2018-08-27T13:01:26.936Z,1.87
2018-08-27T13:03:55.531Z,1.73
2018-08-27T13:06:24.077Z,1.70
2018-08-27T13:08:52.932Z,2.10
2018-08-27T13:11:21.533Z,1.70
2018-08-27T13:13:50.091Z,2.10
2018-08-27T13:16:18.770Z,1.50
2018-08-27T13:18:47.334Z,1.70
2018-08-27T13:21:21.240Z,3.53
2018-08-27T13:23:49.788Z,2.97
2018-08-27T13:26:18.352Z,3.87
2018-08-27T13:28:47.307Z,2.50
2018-08-27T13:31:15.898Z,2.57
2018-08-27T13:33:44.744Z,2.07
2018-08-27T13:36:13.844Z,2.30
2018-08-27T13:38:42.467Z,2.37
2018-08-27T13:41:11.088Z,2.47
2018-08-27T13:43:40.032Z,2.87
2018-08-27T13:46:08.813Z,2.60
2018-08-27T13:48:37.400Z,3.30
2018-08-27T13:51:06.171Z,5.10
2018-08-27T13:53:34.727Z,1.60
2018-08-27T13:56:03.297Z,1.97
2018-08-27T13:58:31.897Z,1.83
2018-08-27T14:01:00.459Z,1.80
2018-08-27T14:03:29.023Z,2.03
2018-08-27T14:05:58.037Z,2.10
2018-08-27T14:08:26.579Z,1.97
2018-08-27T14:10:55.120Z,2.47
2018-08-27T14:13:23.700Z,2.00
2018-08-27T14:15:52.300Z,2.07
2018-08-27T14:18:20.804Z,2.23
2018-08-27T14:20:49.508Z,2.03
2018-08-27T14:23:18.056Z,2.20
2018-08-27T14:25:46.650Z,1.70
2018-08-27T14:28:15.294Z,2.33
2018-08-27T14:30:43.853Z,2.30
2018-08-27T14:33:12.452Z,1.97
2018-08-27T14:35:41.332Z,2.17
2018-08-27T14:38:09.822Z,1.53
2018-08-27T14:40:38.397Z,2.00
2018-08-27T14:43:07.282Z,1.80
2018-08-27T14:45:35.832Z,1.90
2018-08-27T14:48:04.536Z,2.17
2018-08-27T14:50:33.104Z,1.80
2018-08-27T14:53:01.641Z,1.80
2018-08-27T14:55:30.291Z,1.80
2018-08-27T14:57:59.307Z,1.43
2018-08-27T15:00:27.984Z,1.50
2018-08-27T15:02:56.527Z,1.30
2018-08-27T15:05:25.112Z,1.53
2018-08-27T15:07:53.664Z,1.67
2018-08-27T15:10:22.198Z,2.00
2018-08-27T15:12:52.593Z,1.90
2018-08-27T15:15:21.517Z,2.40
2018-08-27T15:17:50.069Z,1.70
2018-08-27T15:20:18.776Z,2.03
2018-08-27T15:22:47.331Z,2.00
2018-08-27T15:25:15.863Z,1.90
2018-08-27T15:27:44.447Z,1.97
2018-08-27T15:30:12.998Z,1.90
2018-08-27T15:32:41.543Z,2.23
2018-08-27T15:35:10.223Z,1.50
2018-08-27T15:37:38.777Z,2.10
2018-08-27T15:40:07.448Z,1.93
2018-08-27T15:42:36.067Z,2.00
2018-08-27T15:45:06.956Z,1.57
2018-08-27T15:47:36.747Z,1.70
2018-08-27T15:50:05.366Z,1.77
2018-08-27T15:52:33.919Z,2.03
2018-08-27T15:55:02.483Z,2.37
2018-08-27T15:57:31.128Z,1.70
2018-08-27T15:59:59.672Z,1.80
2018-08-27T16:02:28.528Z,2.63
2018-08-27T16:04:57.157Z,1.53
2018-08-27T16:07:25.718Z,2.10
2018-08-27T16:09:54.691Z,1.57
2018-08-27T16:12:23.227Z,1.40
2018-08-27T16:14:51.782Z,2.20
2018-08-27T16:17:20.448Z,1.67
2018-08-27T16:19:49.000Z,2.10
2018-08-27T16:22:17.572Z,1.37
2018-08-27T16:24:46.374Z,1.60
2018-08-27T16:27:14.911Z,1.60
2018-08-27T16:29:43.488Z,2.10
2018-08-27T16:32:12.547Z,2.23
2018-08-27T16:34:41.563Z,1.77
2018-08-27T16:37:11.036Z,1.90
2018-08-27T16:39:39.703Z,1.37
2018-08-27T16:42:08.212Z,2.17
2018-08-27T16:44:36.768Z,1.37
2018-08-27T16:47:05.351Z,1.53
2018-08-27T16:49:33.907Z,1.70
2018-08-27T16:52:02.466Z,1.40
2018-08-27T16:54:31.268Z,2.10
2018-08-27T16:56:59.828Z,1.50
2018-08-27T16:59:29.263Z,1.93
2018-08-27T17:01:58.237Z,1.60
2018-08-27T17:04:26.792Z,2.10
2018-08-27T17:06:55.332Z,2.03
2018-08-27T17:09:24.004Z,1.30
2018-08-27T17:11:52.547Z,1.30
2018-08-27T17:14:21.100Z,1.90
2018-08-27T17:16:49.678Z,1.23
2018-08-27T17:19:18.322Z,1.60
2018-08-27T17:21:47.199Z,1.80
2018-08-27T17:24:16.052Z,2.10
2018-08-27T17:26:45.115Z,2.50
2018-08-27T17:29:14.348Z,1.90
2018-08-27T17:31:42.930Z,1.97
2018-08-27T17:34:11.476Z,1.67
2018-08-27T17:36:40.171Z,1.93
2018-08-27T17:39:10.870Z,2.00
2018-08-27T17:41:40.371Z,2.10
2018-08-27T17:44:09.817Z,2.10
2018-08-27T17:46:38.471Z,2.03
2018-08-27T17:49:07.016Z,2.30
2018-08-27T17:51:35.576Z,2.13
2018-08-27T17:54:04.451Z,2.30
2018-08-27T17:56:33.011Z,1.77
2018-08-27T17:59:01.623Z,2.00
2018-08-27T18:01:30.540Z,1.77
2018-08-27T18:03:59.176Z,2.60
2018-08-27T18:06:27.740Z,2.30
2018-08-27T18:08:56.435Z,2.33
2018-08-27T18:11:24.991Z,1.63
2018-08-27T18:13:53.543Z,2.33
2018-08-27T18:16:22.147Z,2.33
2018-08-27T18:18:50.718Z,1.80
2018-08-27T18:21:19.276Z,2.00
2018-08-27T18:23:47.852Z,2.27
2018-08-27T18:26:16.411Z,1.63
2018-08-27T18:28:44.972Z,2.43
2018-08-27T18:31:13.820Z,1.67
2018-08-27T18:33:42.382Z,1.80
2018-08-27T18:36:10.946Z,1.60
2018-08-27T18:38:39.548Z,2.10
2018-08-27T18:41:08.104Z,2.00
2018-08-27T18:43:36.672Z,2.13
2018-08-27T18:46:05.538Z,1.57
2018-08-27T18:48:34.119Z,1.83
2018-08-27T18:51:02.776Z,1.80
2018-08-27T18:53:31.550Z,1.87
2018-08-27T18:56:00.117Z,1.70
2018-08-27T18:58:28.716Z,1.93
2018-08-27T19:00:57.395Z,1.77
2018-08-27T19:03:26.000Z,2.03
2018-08-27T19:05:54.552Z,1.67
2018-08-27T19:08:23.411Z,2.40
2018-08-27T19:10:52.000Z,1.93
2018-08-27T19:13:20.679Z,1.90
2018-08-27T19:15:49.256Z,2.27
2018-08-27T19:18:17.815Z,2.13
2018-08-27T19:20:46.472Z,2.03
2018-08-27T19:23:15.044Z,2.03
2018-08-27T19:25:43.568Z,1.57
2018-08-27T19:28:12.112Z,2.13
2018-08-27T19:30:40.772Z,2.20
2018-08-27T19:33:09.324Z,2.40
2018-08-27T19:35:37.922Z,2.13
2018-08-27T19:38:06.823Z,1.40
2018-08-27T19:40:35.387Z,1.80
2018-08-27T19:43:04.007Z,1.60
2018-08-27T19:45:32.563Z,1.67
2018-08-27T19:48:01.116Z,2.10
2018-08-27T19:50:29.672Z,1.67
2018-08-27T19:52:58.268Z,2.20
2018-08-27T19:55:26.819Z,2.37
2018-08-27T19:57:55.503Z,2.37
2018-08-27T20:00:24.388Z,1.90
2018-08-27T20:02:53.391Z,1.90
2018-08-27T20:05:21.971Z,2.10
2018-08-27T20:07:50.591Z,2.43
2018-08-27T20:10:19.139Z,2.70
2018-08-27T20:12:47.712Z,2.40
2018-08-27T20:15:16.619Z,2.73
2018-08-27T20:17:45.205Z,1.80
2018-08-27T20:20:13.832Z,2.00
2018-08-27T20:22:42.675Z,2.27
2018-08-27T20:25:11.240Z,2.20
2018-08-27T20:27:39.801Z,2.27
2018-08-27T20:30:08.435Z,2.97
2018-08-27T20:32:36.979Z,2.23
2018-08-27T20:35:05.567Z,3.30
2018-08-27T20:37:34.301Z,3.43
2018-08-27T20:40:02.848Z,3.20
2018-08-27T20:42:31.397Z,3.30
2018-08-27T20:45:00.318Z,4.23
2018-08-27T20:47:29.343Z,3.30
2018-08-27T20:49:57.892Z,3.00
2018-08-27T20:52:26.816Z,2.40
2018-08-27T20:54:55.367Z,3.10
2018-08-27T20:57:23.992Z,2.30
2018-08-27T20:59:52.539Z,2.10
2018-08-27T21:02:21.329Z,3.30
2018-08-27T21:04:49.894Z,2.80
2018-08-27T21:07:18.548Z,3.50
2018-08-27T21:09:47.423Z,2.57
2018-08-27T21:12:16.000Z,2.73
2018-08-27T21:15:07.890Z,2.50
2018-08-27T21:17:37.023Z,2.30
2018-08-27T21:20:06.678Z,2.60
2018-08-27T21:22:35.633Z,2.63
2018-08-27T21:25:05.142Z,2.80
2018-08-27T21:27:34.204Z,3.50
2018-08-27T21:30:02.907Z,2.87
2018-08-27T21:32:31.457Z,2.97
2018-08-27T21:35:00.042Z,2.70
2018-08-27T21:37:28.699Z,2.77
2018-08-27T21:39:57.210Z,3.20
2018-08-27T21:42:25.783Z,2.47
2018-08-27T21:44:54.388Z,3.00
2018-08-27T21:47:22.972Z,3.37
2018-08-27T21:49:51.515Z,3.30
2018-08-27T21:52:20.127Z,3.07
2018-08-27T21:54:48.703Z,3.30
2018-08-27T21:57:17.464Z,3.30
2018-08-27T21:59:46.145Z,2.90
2018-08-27T22:02:19.891Z,2.93
2018-08-27T22:04:48.656Z,3.23
2018-08-27T22:07:17.267Z,3.20
2018-08-27T22:09:45.808Z,3.60
2018-08-27T22:12:14.389Z,2.60
2018-08-27T22:14:42.931Z,3.33
2018-08-27T22:17:11.492Z,3.10
2018-08-27T22:19:40.791Z,3.10
2018-08-27T22:22:09.450Z,3.90
2018-08-27T22:24:37.939Z,3.20
2018-08-27T22:27:06.717Z,3.30
2018-08-27T22:29:35.307Z,3.37
2018-08-27T22:32:03.878Z,3.70
2018-08-27T22:34:32.472Z,3.00
2018-08-27T22:37:01.011Z,3.67
2018-08-27T22:39:29.584Z,4.00
2018-08-27T22:41:58.227Z,3.13
2018-08-27T22:44:26.804Z,3.20
2018-08-27T22:46:55.359Z,3.23
2018-08-27T22:49:23.959Z,3.07
2018-08-27T22:51:52.543Z,3.20
2018-08-27T22:54:21.101Z,2.77
2018-08-27T22:56:49.760Z,2.70
2018-08-27T22:59:18.323Z,2.60
2018-08-27T23:01:46.947Z,3.37
2018-08-27T23:04:21.020Z,3.03
2018-08-27T23:06:49.559Z,2.53
2018-08-27T23:09:18.116Z,2.67
2018-08-27T23:11:46.784Z,4.30
2018-08-27T23:14:15.331Z,3.43
2018-08-27T23:16:43.883Z,3.03
2018-08-27T23:19:12.803Z,3.50
2018-08-27T23:21:41.404Z,3.17
2018-08-27T23:24:09.951Z,3.23
2018-08-27T23:26:38.876Z,2.53
2018-08-27T23:29:07.439Z,2.73
2018-08-27T23:31:35.995Z,3.67
2018-08-27T23:34:04.588Z,3.20
2018-08-27T23:36:33.147Z,3.20
2018-08-27T23:39:01.744Z,3.30
2018-08-27T23:41:30.464Z,2.80
2018-08-27T23:43:59.004Z,3.17
2018-08-27T23:46:27.547Z,3.00
2018-08-27T23:48:56.459Z,2.80
2018-08-27T23:51:24.999Z,3.43
2018-08-27T23:53:53.543Z,3.20
2018-08-27T23:56:22.123Z,3.03
2018-08-27T23:58:50.687Z,3.90
